Hauptseite
METAR-TAF:

METAR-TAF

Flughäfen :

Flughafen Pohnpei

Pohnpei, Mikronesien

Breite: 06-59N, Länge: 158-12E, Höhe: 2 m

Beobachtung

Neuester Wetterbericht von vor 3 Stunden und 44 Minuten, um 04:50 UTC
Wind 5 kt aus Ost/Südost
Temperatur 28°C
Luftfeuchtigkeit 84%
Luftdruck 1010 hPa
Sichtweite: 24.1 km
Durchbrochene Bewölkung in der Höhe von 1800 ft, Towering cumulus.
Geschlossene Wolkendecke in der Höhe von 30000 ft

METAR: PTPN 210450Z 11005KT 15SM BKN018TCU OVC300 28/25 A2983 RMK TCU SE LAST

Zeit: 19:34 (08:34 UTC)

Prognose

Neuester Wetterbericht von vor 9 Stunden und 4 Minuten, um 23:30 UTC
Gültige Prognose vom 21 um 00 UTC bis 21 um 24 UTC
Wind 8 kt aus Ost
Sichtweite: 10 km
Aufgelockert bewölkt in der Höhe von 1800 ft
Durchbrochene Bewölkung in der Höhe von 30000 ft
Schauer in der Nähe

TAF: PTPN 202330Z 2100/2124 10008KT P6SM VCSH SCT018 BKN300

Wetterbeobachtungen und Prognosen von mehr als 4000 Flughäfen (METAR und TAF Bericht).

Die verfügbaren Stationen werden durch gelbe und rote Markierungen auf der Karte dargestellt.

Führen Sie die Maus auf sie, um den Namen der Station zu sehen.

Darauf klicken, um die Beobachtung von Wetterbeobachtungen und Prognosen zu sehen.

Um die Karte zu ändern : klicken Sie auf den grünen Tasten mit einem schwarzen Kreuz Zum Vergrößern, auf den grünen Button mit einem Gedankenstrich zu verkleinern, oder auf die grünen Pfeile für benachbarte Karten.


METAR-TAF: